Pagina principale
METAR-TAF:

METAR-TAF

Aeroporti :

Dinard, Francia

latitudine: 48-35N, longitudine: 002-04W, altezza: 65 m

Osservazione

Il bollettino è stato emesso 38 minuti fa, alle 11:30 UTC
Vento 10 kt da nord
Temperature 24°C
Umidità 78%
Pressione 1020 hPa
Visibilità: 9000 m

METAR: LFRD 261130Z AUTO 01010KT 9000 NSC 24/20 Q1020 TEMPO 04015G25KT

Ora: 14:08 (12:08 UTC)

Previsione

Il bollettino è stato emesso 1 ora e 8 minuti fa, alle 11:00 UTC
Previsione valida dal 26 alle 12 UTC al 27 alle 12 UTC
Vento 10 kt da nord-est
Visibilità: 8000 m
Temporaneamente
dal 26 alle 15 UTC al 26 alle 21 UTC
Vento 15 kt da nord-est con raffiche fino a 25 kt
Probabilità 30% :
Temporaneamente
dal 26 alle 19 UTC al 27 alle 06 UTC
Nuvoloso ad un'altezza di 700 ft

TAF: LFRD 261100Z 2612/2712 05010KT 8000 NSC TEMPO 2615/2621 04015G25KT PROB30 TEMPO 2619/2706 BKN007

Osservazioni e previsioni meteorologiche di più di 4000 aeroporti (messaggi METAR e TAF).

Le stazioni disponibili sono rappresentate dai dischi gialli e rossi sulla carta.

Puntare il mouse per vedere il nome della stazione.

Clicca sopra per visualizzare le osservazioni e previsioni meteorologiche.

Per cambiare la mappa : fare clic sui pulsanti verdi con una croce nera per ingrandire, il pulsante verde con un trattino per diminuire, o sulla freccia verde per le mappe adiacenti.


METAR-TAF: